sensor_id;sensor_type;location;lat;lon;timestamp;temperature;humidity
68746;SHT31;65497;45.454;11.064;2022-11-25T08:33:41;19.11;56.53
68746;SHT31;65497;45.454;11.064;2022-11-25T08:36:17;19.18;56.42
68746;SHT31;65497;45.454;11.064;2022-11-25T08:38:54;19.22;56.34
68746;SHT31;65497;45.454;11.064;2022-11-25T08:41:55;19.27;56.21
68746;SHT31;65497;45.454;11.064;2022-11-25T08:46:09;19.33;56.13
68746;SHT31;65497;45.454;11.064;2022-11-25T08:49:21;19.45;56.09
68746;SHT31;65497;45.454;11.064;2022-11-25T08:53:54;19.54;55.84
68746;SHT31;65497;45.454;11.064;2022-11-25T08:56:30;19.58;55.79
68746;SHT31;65497;45.454;11.064;2022-11-25T08:59:06;19.62;55.67
68746;SHT31;65497;45.454;11.064;2022-11-25T09:01:43;19.64;55.60
68746;SHT31;65497;45.454;11.064;2022-11-25T09:04:20;19.67;55.52
68746;SHT31;65497;45.454;11.064;2022-11-25T09:10:06;19.72;55.44
68746;SHT31;65497;45.454;11.064;2022-11-25T09:19:31;19.98;54.93
68746;SHT31;65497;45.454;11.064;2022-11-25T09:22:04;19.99;54.83
68746;SHT31;65497;45.454;11.064;2022-11-25T09:24:38;20.00;54.79
68746;SHT31;65497;45.454;11.064;2022-11-25T09:27:12;19.98;54.74
68746;SHT31;65497;45.454;11.064;2022-11-25T14:44:25;17.76;49.86
68746;SHT31;65497;45.454;11.064;2022-11-25T14:47:04;17.14;49.59
68746;SHT31;65497;45.454;11.064;2022-11-25T14:49:44;16.54;50.63
68746;SHT31;65497;45.454;11.064;2022-11-25T14:52:40;16.03;51.67
68746;SHT31;65497;45.454;11.064;2022-11-25T14:55:22;15.74;52.47
68746;SHT31;65497;45.454;11.064;2022-11-25T14:57:58;15.53;52.89
68746;SHT31;65497;45.454;11.064;2022-11-25T15:00:31;15.35;53.36
68746;SHT31;65497;45.454;11.064;2022-11-25T15:03:18;15.16;53.95
68746;SHT31;65497;45.454;11.064;2022-11-25T15:05:54;14.99;54.52
68746;SHT31;65497;45.454;11.064;2022-11-25T15:08:38;14.83;54.91
68746;SHT31;65497;45.454;11.064;2022-11-25T15:11:14;14.69;55.45
68746;SHT31;65497;45.454;11.064;2022-11-25T15:13:52;14.58;55.76
68746;SHT31;65497;45.454;11.064;2022-11-25T15:16:33;14.52;56.69
68746;SHT31;65497;45.454;11.064;2022-11-25T15:19:13;14.51;57.30
68746;SHT31;65497;45.454;11.064;2022-11-25T15:21:51;14.52;57.43
68746;SHT31;65497;45.454;11.064;2022-11-25T15:24:50;14.49;57.22
68746;SHT31;65497;45.454;11.064;2022-11-25T15:27:41;14.48;57.62
68746;SHT31;65497;45.454;11.064;2022-11-25T15:32:54;14.42;58.21
68746;SHT31;65497;45.454;11.064;2022-11-25T15:35:30;14.39;58.13
68746;SHT31;65497;45.454;11.064;2022-11-25T15:38:16;14.32;58.23
68746;SHT31;65497;45.454;11.064;2022-11-25T15:41:05;14.19;58.72
68746;SHT31;65497;45.454;11.064;2022-11-25T15:43:49;14.07;59.03
68746;SHT31;65497;45.454;11.064;2022-11-25T15:46:25;13.96;59.31
68746;SHT31;65497;45.454;11.064;2022-11-25T15:49:03;13.88;59.57
68746;SHT31;65497;45.454;11.064;2022-11-25T15:51:47;13.78;59.95
68746;SHT31;65497;45.454;11.064;2022-11-25T15:54:25;13.67;60.37
68746;SHT31;65497;45.454;11.064;2022-11-25T15:57:01;13.58;60.62
68746;SHT31;65497;45.454;11.064;2022-11-25T15:59:47;13.54;60.79
68746;SHT31;65497;45.454;11.064;2022-11-25T16:02:52;13.45;61.11
68746;SHT31;65497;45.454;11.064;2022-11-25T16:05:27;13.37;61.30
68746;SHT31;65497;45.454;11.064;2022-11-25T16:11:08;13.25;61.44
68746;SHT31;65497;45.454;11.064;2022-11-25T16:13:46;13.16;61.66
68746;SHT31;65497;45.454;11.064;2022-11-25T16:16:21;13.04;61.92
68746;SHT31;65497;45.454;11.064;2022-11-25T16:19:04;12.96;62.07
68746;SHT31;65497;45.454;11.064;2022-11-25T16:21:44;12.92;62.17
68746;SHT31;65497;45.454;11.064;2022-11-25T16:27:18;12.75;62.51
68746;SHT31;65497;45.454;11.064;2022-11-25T16:29:55;12.67;62.72
68746;SHT31;65497;45.454;11.064;2022-11-25T16:32:45;12.59;62.94
68746;SHT31;65497;45.454;11.064;2022-11-25T16:35:18;12.52;63.16
68746;SHT31;65497;45.454;11.064;2022-11-25T16:37:51;12.46;63.31
68746;SHT31;65497;45.454;11.064;2022-11-25T16:40:28;12.44;63.32
68746;SHT31;65497;45.454;11.064;2022-11-25T16:43:03;12.44;63.35
68746;SHT31;65497;45.454;11.064;2022-11-25T16:45:45;12.45;63.29
68746;SHT31;65497;45.454;11.064;2022-11-25T16:48:23;12.38;63.32
68746;SHT31;65497;45.454;11.064;2022-11-25T16:50:55;12.27;63.48
68746;SHT31;65497;45.454;11.064;2022-11-25T16:53:28;12.16;63.72
68746;SHT31;65497;45.454;11.064;2022-11-25T16:56:01;12.11;63.78
68746;SHT31;65497;45.454;11.064;2022-11-25T16:58:37;12.05;63.83
68746;SHT31;65497;45.454;11.064;2022-11-25T17:01:13;11.97;63.98
68746;SHT31;65497;45.454;11.064;2022-11-25T17:03:49;11.88;64.25
68746;SHT31;65497;45.454;11.064;2022-11-25T17:06:22;11.84;64.32
68746;SHT31;65497;45.454;11.064;2022-11-25T17:08:58;11.81;64.40
68746;SHT31;65497;45.454;11.064;2022-11-25T17:11:31;11.81;64.38
68746;SHT31;65497;45.454;11.064;2022-11-25T17:14:16;11.78;64.41
68746;SHT31;65497;45.454;11.064;2022-11-25T17:16:59;11.71;64.52
68746;SHT31;65497;45.454;11.064;2022-11-25T17:19:32;11.68;64.59
68746;SHT31;65497;45.454;11.064;2022-11-25T17:22:06;11.63;64.72
68746;SHT31;65497;45.454;11.064;2022-11-25T17:24:48;11.59;64.77
68746;SHT31;65497;45.454;11.064;2022-11-25T17:27:23;11.56;64.79
68746;SHT31;65497;45.454;11.064;2022-11-25T17:29:59;11.53;64.92
68746;SHT31;65497;45.454;11.064;2022-11-25T17:32:34;11.52;64.94
68746;SHT31;65497;45.454;11.064;2022-11-25T17:35:13;11.49;64.98
68746;SHT31;65497;45.454;11.064;2022-11-25T17:37:48;11.44;65.07
68746;SHT31;65497;45.454;11.064;2022-11-25T17:40:21;11.40;65.16
68746;SHT31;65497;45.454;11.064;2022-11-25T17:42:54;11.39;65.18
68746;SHT31;65497;45.454;11.064;2022-11-25T17:45:27;11.35;65.25
68746;SHT31;65497;45.454;11.064;2022-11-25T17:47:59;11.29;65.41
68746;SHT31;65497;45.454;11.064;2022-11-25T17:50:38;11.22;65.50
68746;SHT31;65497;45.454;11.064;2022-11-25T17:53:12;11.22;65.47
68746;SHT31;65497;45.454;11.064;2022-11-25T17:55:45;11.20;65.50
68746;SHT31;65497;45.454;11.064;2022-11-25T17:58:18;11.18;65.55
68746;SHT31;65497;45.454;11.064;2022-11-25T18:00:51;11.11;65.63
68746;SHT31;65497;45.454;11.064;2022-11-25T18:03:23;11.03;65.78
68746;SHT31;65497;45.454;11.064;2022-11-25T18:05:56;10.95;65.88
68746;SHT31;65497;45.454;11.064;2022-11-25T18:08:30;10.88;66.03
68746;SHT31;65497;45.454;11.064;2022-11-25T18:11:03;10.80;66.14
68746;SHT31;65497;45.454;11.064;2022-11-25T18:13:40;10.73;66.40
68746;SHT31;65497;45.454;11.064;2022-11-25T18:16:15;10.56;66.45
68746;SHT31;65497;45.454;11.064;2022-11-25T18:18:51;10.32;66.82
68746;SHT31;65497;45.454;11.064;2022-11-25T18:21:23;10.10;67.18
68746;SHT31;65497;45.454;11.064;2022-11-25T18:23:57;9.82;67.84
68746;SHT31;65497;45.454;11.064;2022-11-25T18:26:29;9.68;68.53
68746;SHT31;65497;45.454;11.064;2022-11-25T18:29:10;9.65;68.80
68746;SHT31;65497;45.454;11.064;2022-11-25T18:31:47;9.72;68.80
68746;SHT31;65497;45.454;11.064;2022-11-25T18:34:21;9.82;68.62
68746;SHT31;65497;45.454;11.064;2022-11-25T18:36:54;9.89;68.58
68746;SHT31;65497;45.454;11.064;2022-11-25T18:39:27;9.92;68.55
68746;SHT31;65497;45.454;11.064;2022-11-25T18:42:00;9.95;68.50
68746;SHT31;65497;45.454;11.064;2022-11-25T18:44:36;9.95;68.45
68746;SHT31;65497;45.454;11.064;2022-11-25T18:47:11;9.94;68.41
68746;SHT31;65497;45.454;11.064;2022-11-25T18:49:44;9.94;68.33
68746;SHT31;65497;45.454;11.064;2022-11-25T18:52:23;9.97;68.16
68746;SHT31;65497;45.454;11.064;2022-11-25T18:54:56;10.02;68.09
68746;SHT31;65497;45.454;11.064;2022-11-25T18:57:28;10.06;68.02
68746;SHT31;65497;45.454;11.064;2022-11-25T19:00:02;10.08;67.91
68746;SHT31;65497;45.454;11.064;2022-11-25T19:03:00;10.09;67.80
68746;SHT31;65497;45.454;11.064;2022-11-25T19:05:34;10.11;67.64
68746;SHT31;65497;45.454;11.064;2022-11-25T19:08:07;10.16;67.45
68746;SHT31;65497;45.454;11.064;2022-11-25T19:10:40;10.21;67.25
68746;SHT31;65497;45.454;11.064;2022-11-25T19:13:16;10.18;67.23
68746;SHT31;65497;45.454;11.064;2022-11-25T19:15:54;10.10;67.30
68746;SHT31;65497;45.454;11.064;2022-11-25T19:18:33;10.08;67.34
68746;SHT31;65497;45.454;11.064;2022-11-25T19:21:07;10.05;67.35
68746;SHT31;65497;45.454;11.064;2022-11-25T19:23:44;10.01;67.46
68746;SHT31;65497;45.454;11.064;2022-11-25T19:26:18;9.96;67.56
68746;SHT31;65497;45.454;11.064;2022-11-25T19:28:58;9.94;67.53
68746;SHT31;65497;45.454;11.064;2022-11-25T19:31:35;9.99;67.35
68746;SHT31;65497;45.454;11.064;2022-11-25T19:34:08;10.02;67.23
68746;SHT31;65497;45.454;11.064;2022-11-25T19:36:54;10.05;67.10
68746;SHT31;65497;45.454;11.064;2022-11-25T19:39:27;10.08;66.96
68746;SHT31;65497;45.454;11.064;2022-11-25T19:42:04;10.07;66.88
68746;SHT31;65497;45.454;11.064;2022-11-25T19:44:38;10.08;66.71
68746;SHT31;65497;45.454;11.064;2022-11-25T19:47:13;10.07;66.68
68746;SHT31;65497;45.454;11.064;2022-11-25T19:49:50;10.08;66.62
68746;SHT31;65497;45.454;11.064;2022-11-25T19:52:32;10.10;66.38
68746;SHT31;65497;45.454;11.064;2022-11-25T19:55:10;10.10;66.27
68746;SHT31;65497;45.454;11.064;2022-11-25T19:57:46;10.13;66.03
68746;SHT31;65497;45.454;11.064;2022-11-25T20:00:21;10.13;65.82
68746;SHT31;65497;45.454;11.064;2022-11-25T20:02:55;10.11;65.64
68746;SHT31;65497;45.454;11.064;2022-11-25T20:05:29;10.11;65.52
68746;SHT31;65497;45.454;11.064;2022-11-25T20:08:08;10.11;65.40
68746;SHT31;65497;45.454;11.064;2022-11-25T20:10:47;10.09;65.40
68746;SHT31;65497;45.454;11.064;2022-11-25T20:13:21;10.03;65.40
68746;SHT31;65497;45.454;11.064;2022-11-25T20:15:54;10.01;65.49
68746;SHT31;65497;45.454;11.064;2022-11-25T20:18:28;10.01;65.52
68746;SHT31;65497;45.454;11.064;2022-11-25T20:21:02;10.01;65.62
68746;SHT31;65497;45.454;11.064;2022-11-25T20:23:36;9.97;65.68
68746;SHT31;65497;45.454;11.064;2022-11-25T20:26:13;9.92;65.75
68746;SHT31;65497;45.454;11.064;2022-11-25T20:28:52;9.95;65.60
68746;SHT31;65497;45.454;11.064;2022-11-25T20:31:25;9.98;65.40
68746;SHT31;65497;45.454;11.064;2022-11-25T20:33:59;9.98;65.27
68746;SHT31;65497;45.454;11.064;2022-11-25T20:36:31;9.96;65.28
68746;SHT31;65497;45.454;11.064;2022-11-25T20:39:05;9.97;65.15
68746;SHT31;65497;45.454;11.064;2022-11-25T20:41:46;9.99;65.10
68746;SHT31;65497;45.454;11.064;2022-11-25T20:44:21;9.98;64.99
68746;SHT31;65497;45.454;11.064;2022-11-25T20:46:55;9.95;64.97
68746;SHT31;65497;45.454;11.064;2022-11-25T20:49:28;9.93;64.96
68746;SHT31;65497;45.454;11.064;2022-11-25T20:52:02;9.92;64.83
68746;SHT31;65497;45.454;11.064;2022-11-25T20:54:38;9.89;64.83
68746;SHT31;65497;45.454;11.064;2022-11-25T20:57:11;9.89;64.79
68746;SHT31;65497;45.454;11.064;2022-11-25T20:59:43;9.88;64.63
68746;SHT31;65497;45.454;11.064;2022-11-25T21:02:16;9.87;64.47
68746;SHT31;65497;45.454;11.064;2022-11-25T21:04:49;9.89;64.25
68746;SHT31;65497;45.454;11.064;2022-11-25T21:07:22;9.89;64.06
68746;SHT31;65497;45.454;11.064;2022-11-25T21:09:54;9.88;64.06
68746;SHT31;65497;45.454;11.064;2022-11-25T21:12:27;9.90;64.02
68746;SHT31;65497;45.454;11.064;2022-11-25T21:15:00;9.90;63.78
68746;SHT31;65497;45.454;11.064;2022-11-25T21:17:40;9.89;63.74
68746;SHT31;65497;45.454;11.064;2022-11-25T21:20:12;9.90;63.60
68746;SHT31;65497;45.454;11.064;2022-11-25T21:22:46;9.89;63.55
68746;SHT31;65497;45.454;11.064;2022-11-25T21:25:23;9.87;63.72
68746;SHT31;65497;45.454;11.064;2022-11-25T21:27:56;9.88;63.87
68746;SHT31;65497;45.454;11.064;2022-11-25T21:30:29;9.86;64.09
68746;SHT31;65497;45.454;11.064;2022-11-25T21:33:04;9.83;64.11
68746;SHT31;65497;45.454;11.064;2022-11-25T21:35:39;9.77;64.43
68746;SHT31;65497;45.454;11.064;2022-11-25T21:38:17;9.76;64.52
68746;SHT31;65497;45.454;11.064;2022-11-25T21:40:55;9.78;64.65
68746;SHT31;65497;45.454;11.064;2022-11-25T21:43:29;9.79;64.57
68746;SHT31;65497;45.454;11.064;2022-11-25T21:46:08;9.80;64.49
68746;SHT31;65497;45.454;11.064;2022-11-25T21:48:46;9.78;64.45
68746;SHT31;65497;45.454;11.064;2022-11-25T21:51:19;9.78;64.45
68746;SHT31;65497;45.454;11.064;2022-11-25T21:53:53;9.80;64.40
68746;SHT31;65497;45.454;11.064;2022-11-25T21:56:26;9.81;64.37
68746;SHT31;65497;45.454;11.064;2022-11-25T21:59:03;9.83;64.27
68746;SHT31;65497;45.454;11.064;2022-11-25T22:01:42;9.82;64.37
68746;SHT31;65497;45.454;11.064;2022-11-25T22:04:17;9.81;64.47
68746;SHT31;65497;45.454;11.064;2022-11-25T22:06:50;9.69;65.24
68746;SHT31;65497;45.454;11.064;2022-11-25T22:09:23;9.48;65.93
68746;SHT31;65497;45.454;11.064;2022-11-25T22:11:56;9.38;65.96
68746;SHT31;65497;45.454;11.064;2022-11-25T22:14:30;9.40;65.84
68746;SHT31;65497;45.454;11.064;2022-11-25T22:17:06;9.40;65.58
68746;SHT31;65497;45.454;11.064;2022-11-25T22:19:46;9.41;65.40
68746;SHT31;65497;45.454;11.064;2022-11-25T22:22:19;9.42;65.40
68746;SHT31;65497;45.454;11.064;2022-11-25T22:24:52;9.41;65.39
68746;SHT31;65497;45.454;11.064;2022-11-25T22:27:25;9.42;65.22
68746;SHT31;65497;45.454;11.064;2022-11-25T22:30:04;9.41;65.12
68746;SHT31;65497;45.454;11.064;2022-11-25T22:32:45;9.44;64.88
68746;SHT31;65497;45.454;11.064;2022-11-25T22:35:23;9.47;64.58
68746;SHT31;65497;45.454;11.064;2022-11-25T22:37:56;9.49;64.46
68746;SHT31;65497;45.454;11.064;2022-11-25T22:40:28;9.53;64.41
68746;SHT31;65497;45.454;11.064;2022-11-25T22:43:02;9.57;64.43
68746;SHT31;65497;45.454;11.064;2022-11-25T22:45:37;9.57;64.55
68746;SHT31;65497;45.454;11.064;2022-11-25T22:48:11;9.62;64.59
68746;SHT31;65497;45.454;11.064;2022-11-25T22:50:49;9.64;64.32
68746;SHT31;65497;45.454;11.064;2022-11-25T22:53:22;9.67;64.50
68746;SHT31;65497;45.454;11.064;2022-11-25T22:55:55;9.68;64.60
68746;SHT31;65497;45.454;11.064;2022-11-25T22:58:27;9.65;64.43
68746;SHT31;65497;45.454;11.064;2022-11-25T23:01:00;9.62;64.34
68746;SHT31;65497;45.454;11.064;2022-11-25T23:03:33;9.64;63.98
68746;SHT31;65497;45.454;11.064;2022-11-25T23:06:07;9.63;63.98
68746;SHT31;65497;45.454;11.064;2022-11-25T23:08:42;9.67;63.76
68746;SHT31;65497;45.454;11.064;2022-11-25T23:11:16;9.69;63.57
68746;SHT31;65497;45.454;11.064;2022-11-25T23:13:51;9.66;63.66
68746;SHT31;65497;45.454;11.064;2022-11-25T23:16:24;9.65;63.70
68746;SHT31;65497;45.454;11.064;2022-11-25T23:18:56;9.61;63.82
68746;SHT31;65497;45.454;11.064;2022-11-25T23:21:31;9.61;63.99
68746;SHT31;65497;45.454;11.064;2022-11-25T23:24:07;9.61;64.00
68746;SHT31;65497;45.454;11.064;2022-11-25T23:26:43;9.61;63.95
68746;SHT31;65497;45.454;11.064;2022-11-25T23:29:16;9.61;63.93
68746;SHT31;65497;45.454;11.064;2022-11-25T23:31:49;9.65;63.84
68746;SHT31;65497;45.454;11.064;2022-11-25T23:34:21;9.65;63.74
68746;SHT31;65497;45.454;11.064;2022-11-25T23:36:54;9.69;63.53
68746;SHT31;65497;45.454;11.064;2022-11-25T23:39:28;9.68;63.43
68746;SHT31;65497;45.454;11.064;2022-11-25T23:42:02;9.66;63.42
68746;SHT31;65497;45.454;11.064;2022-11-25T23:44:42;9.69;63.32
68746;SHT31;65497;45.454;11.064;2022-11-25T23:47:16;9.71;63.31
68746;SHT31;65497;45.454;11.064;2022-11-25T23:49:51;9.71;63.38
68746;SHT31;65497;45.454;11.064;2022-11-25T23:52:25;9.70;63.40
68746;SHT31;65497;45.454;11.064;2022-11-25T23:54:58;9.71;63.49
68746;SHT31;65497;45.454;11.064;2022-11-25T23:57:31;9.72;63.56
